createdAt,value
2015-08-23T00:00:02.237Z,73887
2015-08-23T00:00:14.627Z,73889
2015-08-23T00:00:27.002Z,73892
2015-08-23T00:00:39.254Z,73891
2015-08-23T00:00:51.660Z,73892
2015-08-23T00:01:04.067Z,73891
2015-08-23T00:01:15.754Z,73885
2015-08-23T00:01:28.160Z,73891
2015-08-23T00:01:40.553Z,73885
2015-08-23T00:01:52.959Z,73885
2015-08-23T00:02:05.537Z,73886
2015-08-23T00:02:17.194Z,73883
2015-08-23T00:02:29.584Z,73883
2015-08-23T00:02:41.961Z,73881
2015-08-23T00:02:54.336Z,73877
2015-08-23T00:03:06.711Z,73883
2015-08-23T00:03:19.086Z,73875
2015-08-23T00:03:31.461Z,73876
2015-08-23T00:03:43.838Z,73877
2015-08-23T00:03:56.213Z,73883
2015-08-23T00:04:08.588Z,73883
2015-08-23T00:04:20.963Z,73882
2015-08-23T00:04:33.338Z,73880
2015-08-23T00:04:45.731Z,73883
2015-08-23T00:04:58.090Z,73881
2015-08-23T00:05:10.465Z,73885
2015-08-23T00:05:22.840Z,73889
2015-08-23T00:05:35.215Z,73886
2015-08-23T00:05:47.608Z,73885
2015-08-23T00:05:59.999Z,73881
2015-08-23T00:06:12.374Z,73889
2015-08-23T00:06:24.764Z,73887
2015-08-23T00:06:37.186Z,73884
2015-08-23T00:06:49.594Z,73887
2015-08-23T00:07:02.001Z,73880
2015-08-23T00:07:14.391Z,73886
2015-08-23T00:07:26.813Z,73882
2015-08-23T00:07:39.235Z,73882
2015-08-23T00:07:51.612Z,73878
2015-08-23T00:08:03.987Z,73878
2015-08-23T00:08:16.362Z,73883
2015-08-23T00:08:28.753Z,73880
2015-08-23T00:08:41.143Z,73886
2015-08-23T00:08:53.520Z,73885
2015-08-23T00:09:05.880Z,73881
2015-08-23T00:09:18.286Z,73880
2015-08-23T00:09:30.645Z,73880
2015-08-23T00:09:43.020Z,73878
2015-08-23T00:09:55.396Z,73876
2015-08-23T00:10:07.849Z,73885
2015-08-23T00:10:20.209Z,73879
2015-08-23T00:10:32.584Z,73882
2015-08-23T00:10:44.959Z,73876
2015-08-23T00:10:57.321Z,73880
2015-08-23T00:11:09.712Z,73876
2015-08-23T00:11:22.071Z,73878
2015-08-23T00:11:34.462Z,73876
2015-08-23T00:11:46.837Z,73879
2015-08-23T00:11:59.228Z,73880
2015-08-23T00:12:11.635Z,73874
2015-08-23T00:12:24.025Z,73876
2015-08-23T00:12:36.431Z,73872
2015-08-23T00:12:48.838Z,73880
2015-08-23T00:13:01.230Z,73879
2015-08-23T00:13:13.605Z,73879
2015-08-23T00:13:25.980Z,73879
2015-08-23T00:13:38.355Z,73878
2015-08-23T00:13:50.746Z,73872
2015-08-23T00:14:03.108Z,73870
2015-08-23T00:14:15.483Z,73873
2015-08-23T00:14:27.858Z,73876
2015-08-23T00:14:40.233Z,73879
2015-08-23T00:14:52.608Z,73875
2015-08-23T00:15:04.984Z,73877
2015-08-23T00:15:17.344Z,73874
2015-08-23T00:15:29.719Z,73864
2015-08-23T00:15:41.375Z,73872
2015-08-23T00:15:53.750Z,73868
2015-08-23T00:16:06.111Z,73872
2015-08-23T00:16:18.486Z,73867
2015-08-23T00:16:30.861Z,73877
2015-08-23T00:16:42.518Z,73868
2015-08-23T00:16:54.908Z,73869
2015-08-23T00:17:07.285Z,73868
2015-08-23T00:17:19.660Z,73871
2015-08-23T00:17:32.066Z,73870
2015-08-23T00:17:44.316Z,73874
2015-08-23T00:17:56.707Z,73872
2015-08-23T00:18:09.115Z,73864
2015-08-23T00:18:21.522Z,73874
2015-08-23T00:18:33.943Z,73867
2015-08-23T00:18:46.318Z,73876
2015-08-23T00:18:58.693Z,73868
2015-08-23T00:19:11.056Z,73880
2015-08-23T00:19:23.431Z,73875
2015-08-23T00:19:35.806Z,73878
2015-08-23T00:19:48.181Z,73873
2015-08-23T00:20:00.572Z,73877
2015-08-23T00:20:12.932Z,73873
2015-08-23T00:20:25.307Z,73873
2015-08-23T00:20:37.682Z,73865
2015-08-23T00:20:50.057Z,73865
2015-08-23T00:21:02.434Z,73874
2015-08-23T00:21:14.793Z,73871
2015-08-23T00:21:27.168Z,73873
2015-08-23T00:21:39.543Z,73862
2015-08-23T00:21:51.903Z,73871
2015-08-23T00:22:04.280Z,73860
2015-08-23T00:22:16.655Z,73863
2015-08-23T00:22:29.030Z,73860
2015-08-23T00:22:41.420Z,73861
2015-08-23T00:22:53.795Z,73863
2015-08-23T00:23:06.203Z,73858
2015-08-23T00:23:18.610Z,73865
2015-08-23T00:23:31.000Z,73859
2015-08-23T00:23:43.407Z,73867
2015-08-23T00:23:55.828Z,73860
2015-08-23T00:24:08.205Z,73866
2015-08-23T00:24:20.596Z,73865
2015-08-23T00:24:32.252Z,73870
2015-08-23T00:24:44.627Z,73868
2015-08-23T00:24:57.002Z,73868
2015-08-23T00:25:09.364Z,73865
2015-08-23T00:25:21.739Z,73861
2015-08-23T00:25:34.098Z,73867
2015-08-23T00:25:46.473Z,73858
2015-08-23T00:25:58.848Z,73864
2015-08-23T00:26:11.225Z,73868
2015-08-23T00:26:23.600Z,73862
2015-08-23T00:26:35.975Z,73865
2015-08-23T00:26:48.334Z,73863
2015-08-23T00:27:00.709Z,73869
2015-08-23T00:27:13.118Z,73857
2015-08-23T00:27:25.524Z,73861
2015-08-23T00:27:37.899Z,73861
2015-08-23T00:27:50.258Z,73856
2015-08-23T00:28:02.633Z,73866
2015-08-23T00:28:15.010Z,73859
2015-08-23T00:28:27.401Z,73866
2015-08-23T00:28:39.792Z,73864
2015-08-23T00:28:52.198Z,73862
2015-08-23T00:29:04.604Z,73869
2015-08-23T00:29:16.997Z,73868
2015-08-23T00:29:29.387Z,73881
2015-08-23T00:29:41.809Z,73876
2015-08-23T00:29:54.184Z,73875
2015-08-23T00:30:06.559Z,73874
2015-08-23T00:30:18.936Z,73878
2015-08-23T00:30:31.296Z,73868
2015-08-23T00:30:43.671Z,73872
2015-08-23T00:30:56.030Z,73869
2015-08-23T00:31:08.405Z,73872
2015-08-23T00:31:20.781Z,73869
2015-08-23T00:31:33.156Z,73872
2015-08-23T00:31:45.531Z,73871
2015-08-23T00:31:57.890Z,73867
2015-08-23T00:32:10.250Z,73871
2015-08-23T00:32:22.628Z,73864
2015-08-23T00:32:34.284Z,73872
2015-08-23T00:32:46.659Z,73861
2015-08-23T00:32:59.018Z,73869
2015-08-23T00:33:11.393Z,73864
2015-08-23T00:33:23.770Z,73861
2015-08-23T00:33:36.161Z,73862
2015-08-23T00:33:48.536Z,73859
2015-08-23T00:34:00.911Z,73870
2015-08-23T00:34:13.302Z,73862
2015-08-23T00:34:25.725Z,73869
2015-08-23T00:34:37.397Z,73862
2015-08-23T00:34:49.804Z,73867
2015-08-23T00:35:02.210Z,73858
2015-08-23T00:35:14.600Z,73863
2015-08-23T00:35:27.024Z,73860
2015-08-23T00:35:39.415Z,73859
2015-08-23T00:35:51.806Z,73866
2015-08-23T00:36:04.181Z,73864
2015-08-23T00:36:16.556Z,73860
2015-08-23T00:36:28.917Z,73864
2015-08-23T00:36:40.573Z,73865
2015-08-23T00:36:52.948Z,73867
2015-08-23T00:37:05.323Z,73867
2015-08-23T00:37:17.698Z,73864
2015-08-23T00:37:30.090Z,73863
2015-08-23T00:37:42.449Z,73861
2015-08-23T00:37:54.824Z,73861
2015-08-23T00:38:07.199Z,73865
2015-08-23T00:38:19.590Z,73859
2015-08-23T00:38:31.952Z,73865
2015-08-23T00:38:44.327Z,73856
2015-08-23T00:38:56.702Z,73861
2015-08-23T00:39:09.077Z,73856
2015-08-23T00:39:21.452Z,73858
2015-08-23T00:39:33.845Z,73858
2015-08-23T00:39:46.220Z,73855
2015-08-23T00:39:58.626Z,73856
2015-08-23T00:40:11.032Z,73854
2015-08-23T00:40:23.439Z,73860
2015-08-23T00:40:35.846Z,73848
2015-08-23T00:40:48.252Z,73852
2015-08-23T00:41:00.674Z,73850
2015-08-23T00:41:13.065Z,73855
2015-08-23T00:41:25.471Z,73849
2015-08-23T00:41:37.832Z,73852
2015-08-23T00:41:50.207Z,73845
2015-08-23T00:42:02.582Z,73851
2015-08-23T00:42:14.973Z,73858
2015-08-23T00:42:27.332Z,73852
2015-08-23T00:42:39.709Z,73850
2015-08-23T00:42:52.084Z,73855
2015-08-23T00:43:04.459Z,73851
2015-08-23T00:43:16.834Z,73851
2015-08-23T00:43:29.209Z,73848
2015-08-23T00:43:41.571Z,73855
2015-08-23T00:43:53.946Z,73864
2015-08-23T00:44:06.321Z,73851
2015-08-23T00:44:18.696Z,73855
2015-08-23T00:44:31.055Z,73858
2015-08-23T00:44:43.432Z,73855
2015-08-23T00:44:55.088Z,73858
2015-08-23T00:45:07.479Z,73860
2015-08-23T00:45:19.854Z,73861
2015-08-23T00:45:31.526Z,73866
2015-08-23T00:45:43.950Z,73862
2015-08-23T00:45:56.340Z,73857
2015-08-23T00:46:08.762Z,73858
2015-08-23T00:46:21.153Z,73860
2015-08-23T00:46:33.559Z,73858
2015-08-23T00:46:45.967Z,73862
2015-08-23T00:46:58.342Z,73854
2015-08-23T00:47:10.717Z,73858
2015-08-23T00:47:23.108Z,73850
2015-08-23T00:47:35.483Z,73857
2015-08-23T00:47:47.860Z,73856
2015-08-23T00:48:00.250Z,73861
2015-08-23T00:48:12.625Z,73862
2015-08-23T00:48:24.985Z,73858
2015-08-23T00:48:37.377Z,73860
2015-08-23T00:48:49.752Z,73853
2015-08-23T00:49:02.127Z,73860
2015-08-23T00:49:14.502Z,73864
2015-08-23T00:49:26.877Z,73871
2015-08-23T00:49:39.254Z,73875
2015-08-23T00:49:51.629Z,73868
2015-08-23T00:50:03.286Z,73864
2015-08-23T00:50:15.645Z,73865
2015-08-23T00:50:28.036Z,73857
2015-08-23T00:50:40.428Z,73862
2015-08-23T00:50:52.819Z,73852
2015-08-23T00:51:05.194Z,73867
2015-08-23T00:51:17.600Z,73854
2015-08-23T00:51:30.006Z,73861
2015-08-23T00:51:42.415Z,73851
2015-08-23T00:51:54.821Z,73850
2015-08-23T00:52:07.243Z,73855
2015-08-23T00:52:19.649Z,73849
2015-08-23T00:52:32.071Z,73854
2015-08-23T00:52:44.432Z,73850
2015-08-23T00:52:56.807Z,73851
2015-08-23T00:53:09.182Z,73854
2015-08-23T00:53:21.557Z,73851
2015-08-23T00:53:33.948Z,73858
2015-08-23T00:53:46.309Z,73856
2015-08-23T00:53:58.684Z,73858
2015-08-23T00:54:11.059Z,73854
2015-08-23T00:54:23.466Z,73852
2015-08-23T00:54:35.841Z,73855
2015-08-23T00:54:48.218Z,73859
2015-08-23T00:55:00.608Z,73853
2015-08-23T00:55:12.983Z,73858
2015-08-23T00:55:25.358Z,73847
2015-08-23T00:55:37.733Z,73846
2015-08-23T00:55:49.391Z,73849
2015-08-23T00:56:01.766Z,73850
2015-08-23T00:56:14.157Z,73857
2015-08-23T00:56:25.829Z,73850
2015-08-23T00:56:38.204Z,73851
2015-08-23T00:56:50.612Z,73844
2015-08-23T00:57:03.018Z,73847
2015-08-23T00:57:15.425Z,73846
2015-08-23T00:57:27.831Z,73849
2015-08-23T00:57:40.253Z,73850
2015-08-23T00:57:52.629Z,73844
2015-08-23T00:58:05.004Z,73845
2015-08-23T00:58:17.379Z,73843
2015-08-23T00:58:29.754Z,73852
2015-08-23T00:58:42.113Z,73846
2015-08-23T00:58:54.490Z,73851
2015-08-23T00:59:06.865Z,73842
2015-08-23T00:59:19.225Z,73847
2015-08-23T00:59:31.615Z,73847
2015-08-23T00:59:43.990Z,73850
2015-08-23T00:59:56.353Z,73848
2015-08-23T01:00:08.728Z,73844
2015-08-23T01:00:21.103Z,73842
2015-08-23T01:00:33.478Z,73846
2015-08-23T01:00:45.853Z,73846
2015-08-23T01:00:58.230Z,73847
2015-08-23T01:01:10.620Z,73853
2015-08-23T01:01:22.980Z,73844
2015-08-23T01:01:35.355Z,73849
2015-08-23T01:01:47.745Z,73856
2015-08-23T01:02:00.138Z,73861
2015-08-23T01:02:12.591Z,73855
2015-08-23T01:02:24.982Z,73856
2015-08-23T01:02:37.372Z,73856
2015-08-23T01:02:49.778Z,73848
2015-08-23T01:03:02.186Z,73861
2015-08-23T01:03:14.592Z,73852
2015-08-23T01:03:26.983Z,73858
2015-08-23T01:03:39.358Z,73850
2015-08-23T01:03:51.748Z,73851
2015-08-23T01:04:03.406Z,73845
2015-08-23T01:04:15.781Z,73843
2015-08-23T01:04:28.156Z,73845
2015-08-23T01:04:40.516Z,73841
2015-08-23T01:04:52.891Z,73843
2015-08-23T01:05:05.283Z,73840
2015-08-23T01:05:16.955Z,73848
2015-08-23T01:05:29.330Z,73842
2015-08-23T01:05:41.705Z,73847
2015-08-23T01:05:54.065Z,73842
2015-08-23T01:06:06.457Z,73848
2015-08-23T01:06:18.817Z,73844
2015-08-23T01:06:31.192Z,73847
2015-08-23T01:06:43.551Z,73846
2015-08-23T01:06:55.942Z,73855
2015-08-23T01:07:08.319Z,73845
2015-08-23T01:07:20.694Z,73839
2015-08-23T01:07:33.084Z,73845
2015-08-23T01:07:45.491Z,73844
2015-08-23T01:07:57.897Z,73839
2015-08-23T01:08:10.305Z,73851
2015-08-23T01:08:22.727Z,73846
2015-08-23T01:08:35.102Z,73844
2015-08-23T01:08:47.477Z,73850
2015-08-23T01:08:59.852Z,73847
2015-08-23T01:09:12.230Z,73841
2015-08-23T01:09:24.605Z,73846
2015-08-23T01:09:36.980Z,73838
2015-08-23T01:09:49.355Z,73848
2015-08-23T01:10:01.731Z,73846
2015-08-23T01:10:14.106Z,73846
2015-08-23T01:10:26.481Z,73841
2015-08-23T01:10:38.840Z,73844
2015-08-23T01:10:51.215Z,73841
2015-08-23T01:11:03.593Z,73842
2015-08-23T01:11:15.968Z,73834
2015-08-23T01:11:28.328Z,73850
2015-08-23T01:11:40.703Z,73837
2015-08-23T01:11:53.062Z,73845
2015-08-23T01:12:05.422Z,73840
2015-08-23T01:12:17.797Z,73845
2015-08-23T01:12:30.157Z,73834
2015-08-23T01:12:42.532Z,73836
2015-08-23T01:12:54.938Z,73836
2015-08-23T01:13:07.346Z,73840
2015-08-23T01:13:19.581Z,73831
2015-08-23T01:13:31.987Z,73832
2015-08-23T01:13:43.690Z,73833
2015-08-23T01:13:56.362Z,73831
2015-08-23T01:14:08.770Z,73836
2015-08-23T01:14:21.145Z,73833
2015-08-23T01:14:33.520Z,73838
2015-08-23T01:14:45.723Z,73827
2015-08-23T01:14:58.442Z,73832
2015-08-23T01:15:10.819Z,73827
2015-08-23T01:15:23.194Z,73830
2015-08-23T01:15:35.553Z,73824
2015-08-23T01:15:47.210Z,73832
2015-08-23T01:15:59.600Z,73829
2015-08-23T01:16:11.821Z,73827
2015-08-23T01:16:24.180Z,73826
2015-08-23T01:16:36.555Z,73841
2015-08-23T01:16:48.930Z,73832
2015-08-23T01:17:01.305Z,73838
2015-08-23T01:17:13.682Z,73832
2015-08-23T01:17:26.057Z,73837
2015-08-23T01:17:38.432Z,73833
2015-08-23T01:17:50.823Z,73836
2015-08-23T01:18:03.198Z,73826
2015-08-23T01:18:15.574Z,73828
2015-08-23T01:18:27.996Z,73819
2015-08-23T01:18:40.402Z,73826
2015-08-23T01:18:52.808Z,73824
2015-08-23T01:19:05.199Z,73829
2015-08-23T01:19:17.593Z,73823
2015-08-23T01:19:30.015Z,73827
2015-08-23T01:19:42.452Z,73825
2015-08-23T01:19:54.843Z,73834
2015-08-23T01:20:07.202Z,73824
2015-08-23T01:20:19.579Z,73830
2015-08-23T01:20:31.954Z,73826
2015-08-23T01:20:44.329Z,73829
2015-08-23T01:20:56.704Z,73826
2015-08-23T01:21:09.079Z,73823
2015-08-23T01:21:21.456Z,73828
2015-08-23T01:21:33.831Z,73826
2015-08-23T01:21:46.206Z,73817
2015-08-23T01:21:58.581Z,73828
2015-08-23T01:22:10.940Z,73826
2015-08-23T01:22:23.317Z,73822
2015-08-23T01:22:35.692Z,73825
2015-08-23T01:22:48.067Z,73817
2015-08-23T01:23:00.442Z,73821
2015-08-23T01:23:12.817Z,73820
2015-08-23T01:23:25.229Z,73825
2015-08-23T01:23:37.604Z,73820
2015-08-23T01:23:49.979Z,73821
2015-08-23T01:24:02.370Z,73817
2015-08-23T01:24:14.776Z,73815
2015-08-23T01:24:27.211Z,73814
2015-08-23T01:24:39.617Z,73820
2015-08-23T01:24:52.023Z,73814
2015-08-23T01:25:04.414Z,73814
2015-08-23T01:25:16.851Z,73820
2015-08-23T01:25:29.253Z,73818
2015-08-23T01:25:41.628Z,73821
2015-08-23T01:25:54.003Z,73820
2015-08-23T01:26:06.378Z,73821
2015-08-23T01:26:18.753Z,73819
2015-08-23T01:26:31.172Z,73819
2015-08-23T01:26:43.531Z,73825
2015-08-23T01:26:55.906Z,73829
2015-08-23T01:27:08.281Z,73828
2015-08-23T01:27:20.672Z,73826
2015-08-23T01:27:33.091Z,73829
2015-08-23T01:27:45.450Z,73829
2015-08-23T01:27:57.825Z,73833
2015-08-23T01:28:10.200Z,73825
2015-08-23T01:28:22.575Z,73831
2015-08-23T01:28:34.962Z,73823
2015-08-23T01:28:47.337Z,73830
2015-08-23T01:28:59.728Z,73825
2015-08-23T01:29:12.103Z,73821
2015-08-23T01:29:24.509Z,73821
2015-08-23T01:29:36.901Z,73824
2015-08-23T01:29:49.307Z,73821
2015-08-23T01:30:01.698Z,73823
2015-08-23T01:30:14.104Z,73820
2015-08-23T01:30:26.526Z,73822
2015-08-23T01:30:38.965Z,73817
2015-08-23T01:30:51.356Z,73819
2015-08-23T01:31:03.762Z,73825
2015-08-23T01:31:16.137Z,73825
2015-08-23T01:31:28.529Z,73830
2015-08-23T01:31:40.888Z,73821
2015-08-23T01:31:53.263Z,73831
2015-08-23T01:32:05.654Z,73827
2015-08-23T01:32:18.013Z,73825
2015-08-23T01:32:30.405Z,73819
2015-08-23T01:32:42.780Z,73821
2015-08-23T01:32:55.171Z,73818
2015-08-23T01:33:07.546Z,73813
2015-08-23T01:33:19.921Z,73824
2015-08-23T01:33:31.587Z,73817
2015-08-23T01:33:43.978Z,73823
2015-08-23T01:33:56.353Z,73820
2015-08-23T01:34:08.728Z,73821
2015-08-23T01:34:21.103Z,73827
2015-08-23T01:34:33.486Z,73811
2015-08-23T01:34:45.861Z,73816
2015-08-23T01:34:58.251Z,73816
2015-08-23T01:35:10.626Z,73820
2015-08-23T01:35:23.033Z,73825
2015-08-23T01:35:35.430Z,73812
2015-08-23T01:35:47.852Z,73813
2015-08-23T01:36:00.243Z,73805
2015-08-23T01:36:12.633Z,73813
2015-08-23T01:36:25.040Z,73809
2015-08-23T01:36:37.454Z,73816
2015-08-23T01:36:49.829Z,73813
2015-08-23T01:37:02.204Z,73808
2015-08-23T01:37:14.579Z,73811
2015-08-23T01:37:26.954Z,73810
2015-08-23T01:37:39.321Z,73812
2015-08-23T01:37:51.696Z,73819
2015-08-23T01:38:04.071Z,73829
2015-08-23T01:38:16.446Z,73822
2015-08-23T01:38:28.821Z,73829
2015-08-23T01:38:41.200Z,73819
2015-08-23T01:38:53.575Z,73819
2015-08-23T01:39:05.950Z,73824
2015-08-23T01:39:18.341Z,73819
2015-08-23T01:39:30.716Z,73820
2015-08-23T01:39:43.095Z,73816
2015-08-23T01:39:55.470Z,73828
2015-08-23T01:40:07.845Z,73823
2015-08-23T01:40:20.236Z,73823
2015-08-23T01:40:32.611Z,73825
2015-08-23T01:40:44.990Z,73821
2015-08-23T01:40:57.380Z,73824
2015-08-23T01:41:09.771Z,73824
2015-08-23T01:41:22.177Z,73825
2015-08-23T01:41:34.583Z,73829
2015-08-23T01:41:46.993Z,73833
2015-08-23T01:41:59.399Z,73830
2015-08-23T01:42:11.805Z,73829
2015-08-23T01:42:24.196Z,73833
2015-08-23T01:42:36.555Z,73826
2015-08-23T01:42:48.935Z,73832
2015-08-23T01:43:01.310Z,73829
2015-08-23T01:43:13.685Z,73828
2015-08-23T01:43:26.060Z,73825
2015-08-23T01:43:38.435Z,73820
2015-08-23T01:43:50.829Z,73808
2015-08-23T01:44:03.204Z,73812
2015-08-23T01:44:15.594Z,73812
2015-08-23T01:44:27.969Z,73810
2015-08-23T01:44:40.344Z,73810
2015-08-23T01:44:52.721Z,73815
2015-08-23T01:45:05.112Z,73816
2015-08-23T01:45:17.487Z,73821
2015-08-23T01:45:29.862Z,73815
2015-08-23T01:45:42.237Z,73816
2015-08-23T01:45:54.615Z,73816
2015-08-23T01:46:06.990Z,73819
2015-08-23T01:46:19.365Z,73819
2015-08-23T01:46:31.740Z,73819
2015-08-23T01:46:44.146Z,73823
2015-08-23T01:46:56.570Z,73815
2015-08-23T01:47:08.976Z,73821
2015-08-23T01:47:21.383Z,73815
2015-08-23T01:47:33.804Z,73817
2015-08-23T01:47:46.195Z,73821
2015-08-23T01:47:58.604Z,73810
2015-08-23T01:48:10.979Z,73811
2015-08-23T01:48:23.370Z,73815
2015-08-23T01:48:35.729Z,73809
2015-08-23T01:48:48.106Z,73818
2015-08-23T01:49:00.497Z,73813
2015-08-23T01:49:12.856Z,73814
2015-08-23T01:49:25.231Z,73809
2015-08-23T01:49:37.606Z,73819
2015-08-23T01:49:49.999Z,73812
2015-08-23T01:50:02.358Z,73817
2015-08-23T01:50:14.733Z,73811
2015-08-23T01:50:27.108Z,73814
2015-08-23T01:50:39.483Z,73812
2015-08-23T01:50:51.860Z,73810
2015-08-23T01:51:04.235Z,73809
2015-08-23T01:51:16.626Z,73814
2015-08-23T01:51:28.985Z,73810
2015-08-23T01:51:41.360Z,73815
2015-08-23T01:51:53.753Z,73810
2015-08-23T01:52:06.128Z,73808
2015-08-23T01:52:18.519Z,73807
2015-08-23T01:52:30.909Z,73802
2015-08-23T01:52:43.315Z,73808
2015-08-23T01:52:55.724Z,73806
2015-08-23T01:53:08.130Z,73804
2015-08-23T01:53:20.536Z,73810
2015-08-23T01:53:32.927Z,73814
2015-08-23T01:53:45.317Z,73807
2015-08-23T01:53:57.694Z,73809
2015-08-23T01:54:10.069Z,73812
2015-08-23T01:54:22.444Z,73804
2015-08-23T01:54:34.835Z,73813
2015-08-23T01:54:47.210Z,73806
2015-08-23T01:54:59.838Z,73810
2015-08-23T01:55:12.213Z,73801
2015-08-23T01:55:24.572Z,73806
2015-08-23T01:55:36.963Z,73809
2015-08-23T01:55:49.338Z,73819
2015-08-23T01:56:01.730Z,73812
2015-08-23T01:56:14.089Z,73817
2015-08-23T01:56:26.464Z,73808
2015-08-23T01:56:38.823Z,73809
2015-08-23T01:56:51.198Z,73803
2015-08-23T01:57:03.575Z,73800
2015-08-23T01:57:15.950Z,73801
2015-08-23T01:57:28.325Z,73807
2015-08-23T01:57:40.716Z,73819
2015-08-23T01:57:52.935Z,73810
2015-08-23T01:58:05.327Z,73813
2015-08-23T01:58:17.734Z,73807
2015-08-23T01:58:30.156Z,73808
2015-08-23T01:58:42.546Z,73809
2015-08-23T01:58:54.937Z,73803
2015-08-23T01:59:07.376Z,73803
2015-08-23T01:59:19.798Z,73810
2015-08-23T01:59:32.204Z,73801
2015-08-23T01:59:44.579Z,73806
2015-08-23T01:59:56.954Z,73803
2015-08-23T02:00:09.331Z,73806
2015-08-23T02:00:21.706Z,73806
2015-08-23T02:00:34.097Z,73793
2015-08-23T02:00:46.456Z,73802
2015-08-23T02:00:58.831Z,73803
2015-08-23T02:01:11.208Z,73803
2015-08-23T02:01:23.583Z,73801
2015-08-23T02:01:35.958Z,73803
2015-08-23T02:01:48.333Z,73799
2015-08-23T02:02:00.724Z,73797
2015-08-23T02:02:13.101Z,73807
2015-08-23T02:02:25.460Z,73807
2015-08-23T02:02:37.835Z,73806
2015-08-23T02:02:50.210Z,73807
2015-08-23T02:03:02.585Z,73801
2015-08-23T02:03:14.978Z,73801
2015-08-23T02:03:27.369Z,73796
2015-08-23T02:03:39.744Z,73801
2015-08-23T02:03:52.134Z,73798
2015-08-23T02:04:04.556Z,73797
2015-08-23T02:04:16.948Z,73800
2015-08-23T02:04:29.354Z,73798
2015-08-23T02:04:41.745Z,73803
2015-08-23T02:04:54.151Z,73804
2015-08-23T02:05:06.542Z,73803
2015-08-23T02:05:18.920Z,73805
2015-08-23T02:05:31.279Z,73803
2015-08-23T02:05:43.654Z,73803
2015-08-23T02:05:56.029Z,73809
2015-08-23T02:06:08.404Z,73804
2015-08-23T02:06:20.781Z,73812
2015-08-23T02:06:33.156Z,73807
2015-08-23T02:06:45.531Z,73797
2015-08-23T02:06:57.922Z,73797
2015-08-23T02:07:10.297Z,73796
2015-08-23T02:07:22.657Z,73803
2015-08-23T02:07:35.048Z,73802
2015-08-23T02:07:47.423Z,73800
2015-08-23T02:07:59.798Z,73806
2015-08-23T02:08:12.440Z,73801
2015-08-23T02:08:24.096Z,73803
2015-08-23T02:08:36.471Z,73799
2015-08-23T02:08:48.862Z,73796
2015-08-23T02:09:01.237Z,73800
2015-08-23T02:09:13.615Z,73789
2015-08-23T02:09:26.021Z,73803
2015-08-23T02:09:38.459Z,73803
2015-08-23T02:09:50.849Z,73809
2015-08-23T02:10:03.271Z,73811
2015-08-23T02:10:15.664Z,73808
2015-08-23T02:10:28.070Z,73805
2015-08-23T02:10:40.461Z,73807
2015-08-23T02:10:52.836Z,73810
2015-08-23T02:11:05.195Z,73809
2015-08-23T02:11:17.571Z,73808
2015-08-23T02:11:29.946Z,73805
2015-08-23T02:11:42.321Z,73816
2015-08-23T02:11:54.696Z,73803
2015-08-23T02:12:07.056Z,73805
2015-08-23T02:12:18.714Z,73810
2015-08-23T02:12:31.089Z,73805
2015-08-23T02:12:43.448Z,73809
2015-08-23T02:12:55.823Z,73803
2015-08-23T02:13:08.198Z,73810
2015-08-23T02:13:19.856Z,73791
2015-08-23T02:13:32.231Z,73789
2015-08-23T02:13:44.606Z,73785
2015-08-23T02:13:56.981Z,73791
2015-08-23T02:14:09.356Z,73792
2015-08-23T02:14:21.749Z,73790
2015-08-23T02:14:34.124Z,73804
2015-08-23T02:14:46.515Z,73801
2015-08-23T02:14:58.905Z,73802
2015-08-23T02:15:11.327Z,73800
2015-08-23T02:15:23.735Z,73800
2015-08-23T02:15:36.142Z,73794
2015-08-23T02:15:48.532Z,73789
2015-08-23T02:16:00.939Z,73799
2015-08-23T02:16:13.360Z,73795
2015-08-23T02:16:25.723Z,73803
2015-08-23T02:16:38.113Z,73797
2015-08-23T02:16:50.473Z,73805
2015-08-23T02:17:02.848Z,73794
2015-08-23T02:17:15.223Z,73799
2015-08-23T02:17:27.599Z,73791
2015-08-23T02:17:39.974Z,73798
2015-08-23T02:17:52.349Z,73802
2015-08-23T02:18:04.724Z,73798
2015-08-23T02:18:17.099Z,73799
2015-08-23T02:18:29.476Z,73792
2015-08-23T02:18:41.851Z,73794
2015-08-23T02:18:54.210Z,73788
2015-08-23T02:19:06.585Z,73796
2015-08-23T02:19:18.960Z,73794
2015-08-23T02:19:31.337Z,73801
2015-08-23T02:19:43.712Z,73802
2015-08-23T02:19:56.087Z,73800
2015-08-23T02:20:08.462Z,73808
2015-08-23T02:20:20.837Z,73809
2015-08-23T02:20:33.230Z,73797
2015-08-23T02:20:45.636Z,73802
2015-08-23T02:20:58.042Z,73801
2015-08-23T02:21:10.449Z,73804
2015-08-23T02:21:22.839Z,73804
2015-08-23T02:21:35.247Z,73804
2015-08-23T02:21:47.638Z,73805
2015-08-23T02:22:00.013Z,73807
2015-08-23T02:22:11.685Z,73803
2015-08-23T02:22:24.044Z,73790
2015-08-23T02:22:36.421Z,73784
2015-08-23T02:22:48.781Z,73783
2015-08-23T02:23:01.156Z,73780
2015-08-23T02:23:13.531Z,73792
2015-08-23T02:23:25.906Z,73800
2015-08-23T02:23:38.267Z,73804
2015-08-23T02:23:50.642Z,73790
2015-08-23T02:24:03.017Z,73791
2015-08-23T02:24:15.376Z,73779
2015-08-23T02:24:27.736Z,73782
2015-08-23T02:24:40.128Z,73784
2015-08-23T02:24:52.488Z,73783
2015-08-23T02:25:04.003Z,73786
2015-08-23T02:25:16.363Z,73786
2015-08-23T02:25:28.753Z,73787
2015-08-23T02:25:40.427Z,73785
2015-08-23T02:25:52.802Z,73787
2015-08-23T02:26:05.193Z,73781
2015-08-23T02:26:17.584Z,73786
2015-08-23T02:26:30.021Z,73788
2015-08-23T02:26:42.414Z,73790
2015-08-23T02:26:54.804Z,73784
2015-08-23T02:27:07.226Z,73782
2015-08-23T02:27:19.601Z,73784
2015-08-23T02:27:31.257Z,73791
2015-08-23T02:27:43.634Z,73784
2015-08-23T02:27:56.009Z,73794
2015-08-23T02:28:08.384Z,73786
2015-08-23T02:28:20.744Z,73787
2015-08-23T02:28:33.119Z,73790
2015-08-23T02:28:45.480Z,73791
2015-08-23T02:28:57.871Z,73792
2015-08-23T02:29:10.246Z,73786
2015-08-23T02:29:21.902Z,73786
2015-08-23T02:29:34.340Z,73782
2015-08-23T02:29:46.732Z,73790
2015-08-23T02:29:59.107Z,73785
2015-08-23T02:30:11.482Z,73781
2015-08-23T02:30:23.873Z,73789
2015-08-23T02:30:36.263Z,73784
2015-08-23T02:30:48.655Z,73784
2015-08-23T02:31:01.077Z,73780
2015-08-23T02:31:13.468Z,73786
2015-08-23T02:31:25.858Z,73779
2015-08-23T02:31:38.266Z,73784
2015-08-23T02:31:50.641Z,73780
2015-08-23T02:32:03.016Z,73786
2015-08-23T02:32:15.641Z,73786
2015-08-23T02:32:28.001Z,73787
2015-08-23T02:32:40.379Z,73782
2015-08-23T02:32:52.738Z,73794
2015-08-23T02:33:05.113Z,73785
2015-08-23T02:33:17.488Z,73794
2015-08-23T02:33:29.868Z,73782
2015-08-23T02:33:42.229Z,73789
2015-08-23T02:33:54.604Z,73792
2015-08-23T02:34:06.979Z,73786
2015-08-23T02:34:19.354Z,73790
2015-08-23T02:34:31.714Z,73784
2015-08-23T02:34:44.091Z,73784
2015-08-23T02:34:56.466Z,73782
2015-08-23T02:35:08.841Z,73781
2015-08-23T02:35:21.200Z,73782
2015-08-23T02:35:33.591Z,73780
2015-08-23T02:35:45.968Z,73780
2015-08-23T02:35:58.374Z,73774
2015-08-23T02:36:10.765Z,73778
2015-08-23T02:36:23.187Z,73778
2015-08-23T02:36:35.577Z,73770
2015-08-23T02:36:47.969Z,73773
2015-08-23T02:37:00.391Z,73772
2015-08-23T02:37:12.797Z,73772
2015-08-23T02:37:25.203Z,73774
2015-08-23T02:37:37.594Z,73781
2015-08-23T02:37:49.971Z,73777
2015-08-23T02:38:02.174Z,73781
2015-08-23T02:38:14.549Z,73784
2015-08-23T02:38:26.924Z,73783
2015-08-23T02:38:39.299Z,73780
2015-08-23T02:38:51.660Z,73780
2015-08-23T02:39:04.035Z,73781